sensor_id;sensor_type;location;lat;lon;timestamp;temperature;humidity
59311;DHT22;45078;51.654;21.250;2023-07-24T00:01:20;21.80;90.50
59311;DHT22;45078;51.654;21.250;2023-07-24T00:03:46;21.80;90.50
59311;DHT22;45078;51.654;21.250;2023-07-24T00:06:11;21.90;90.40
59311;DHT22;45078;51.654;21.250;2023-07-24T00:08:38;21.90;90.30
59311;DHT22;45078;51.654;21.250;2023-07-24T00:11:10;21.90;90.50
59311;DHT22;45078;51.654;21.250;2023-07-24T00:13:35;21.90;90.60
59311;DHT22;45078;51.654;21.250;2023-07-24T00:16:07;21.80;90.70
59311;DHT22;45078;51.654;21.250;2023-07-24T00:18:33;21.80;90.80
59311;DHT22;45078;51.654;21.250;2023-07-24T00:20:58;21.80;90.80
59311;DHT22;45078;51.654;21.250;2023-07-24T00:23:24;21.80;91.10
59311;DHT22;45078;51.654;21.250;2023-07-24T00:25:50;21.80;91.10
59311;DHT22;45078;51.654;21.250;2023-07-24T00:28:16;21.70;90.90
59311;DHT22;45078;51.654;21.250;2023-07-24T00:30:42;21.70;91.10
59311;DHT22;45078;51.654;21.250;2023-07-24T00:33:08;21.70;91.20
59311;DHT22;45078;51.654;21.250;2023-07-24T00:35:34;21.70;91.20
59311;DHT22;45078;51.654;21.250;2023-07-24T00:38:00;21.60;91.40
59311;DHT22;45078;51.654;21.250;2023-07-24T00:40:25;21.60;91.50
59311;DHT22;45078;51.654;21.250;2023-07-24T00:42:51;21.60;91.40
59311;DHT22;45078;51.654;21.250;2023-07-24T00:45:17;21.60;91.40
59311;DHT22;45078;51.654;21.250;2023-07-24T00:47:43;21.60;91.40
59311;DHT22;45078;51.654;21.250;2023-07-24T00:50:10;21.60;91.60
59311;DHT22;45078;51.654;21.250;2023-07-24T00:52:37;21.60;91.60
59311;DHT22;45078;51.654;21.250;2023-07-24T00:55:03;21.50;91.70
59311;DHT22;45078;51.654;21.250;2023-07-24T00:57:29;21.50;91.70
59311;DHT22;45078;51.654;21.250;2023-07-24T00:59:55;21.50;91.80
59311;DHT22;45078;51.654;21.250;2023-07-24T01:02:21;21.50;91.70
59311;DHT22;45078;51.654;21.250;2023-07-24T01:04:47;21.50;91.70
59311;DHT22;45078;51.654;21.250;2023-07-24T01:07:13;21.40;91.90
59311;DHT22;45078;51.654;21.250;2023-07-24T01:09:39;21.40;91.90
59311;DHT22;45078;51.654;21.250;2023-07-24T01:12:10;21.30;92.10
59311;DHT22;45078;51.654;21.250;2023-07-24T01:14:55;21.30;92.10
59311;DHT22;45078;51.654;21.250;2023-07-24T01:17:24;21.30;92.00
59311;DHT22;45078;51.654;21.250;2023-07-24T01:19:58;21.30;92.20
59311;DHT22;45078;51.654;21.250;2023-07-24T01:22:36;21.20;92.20
59311;DHT22;45078;51.654;21.250;2023-07-24T01:27:48;21.20;92.30
59311;DHT22;45078;51.654;21.250;2023-07-24T01:30:18;21.20;92.40
59311;DHT22;45078;51.654;21.250;2023-07-24T01:32:44;21.20;92.60
59311;DHT22;45078;51.654;21.250;2023-07-24T01:35:10;21.20;92.50
59311;DHT22;45078;51.654;21.250;2023-07-24T01:37:37;21.10;92.50
59311;DHT22;45078;51.654;21.250;2023-07-24T01:40:06;21.10;92.50
59311;DHT22;45078;51.654;21.250;2023-07-24T01:42:33;21.10;92.70
59311;DHT22;45078;51.654;21.250;2023-07-24T01:44:59;21.10;92.60
59311;DHT22;45078;51.654;21.250;2023-07-24T01:47:25;21.10;92.50
59311;DHT22;45078;51.654;21.250;2023-07-24T01:49:51;21.10;92.60
59311;DHT22;45078;51.654;21.250;2023-07-24T01:52:17;21.10;92.80
59311;DHT22;45078;51.654;21.250;2023-07-24T01:54:43;21.10;92.80
59311;DHT22;45078;51.654;21.250;2023-07-24T01:57:09;21.10;92.70
59311;DHT22;45078;51.654;21.250;2023-07-24T01:59:34;21.00;93.00
59311;DHT22;45078;51.654;21.250;2023-07-24T02:02:00;21.00;92.80
59311;DHT22;45078;51.654;21.250;2023-07-24T02:04:26;21.00;92.90
59311;DHT22;45078;51.654;21.250;2023-07-24T02:06:51;20.90;93.00
59311;DHT22;45078;51.654;21.250;2023-07-24T02:09:18;20.90;93.00
59311;DHT22;45078;51.654;21.250;2023-07-24T02:11:44;20.90;93.40
59311;DHT22;45078;51.654;21.250;2023-07-24T02:14:12;20.80;93.30
59311;DHT22;45078;51.654;21.250;2023-07-24T02:16:38;20.80;93.50
59311;DHT22;45078;51.654;21.250;2023-07-24T02:19:04;20.80;93.70
59311;DHT22;45078;51.654;21.250;2023-07-24T02:21:29;20.70;94.10
59311;DHT22;45078;51.654;21.250;2023-07-24T02:23:55;20.60;94.10
59311;DHT22;45078;51.654;21.250;2023-07-24T02:26:21;20.50;94.50
59311;DHT22;45078;51.654;21.250;2023-07-24T02:28:47;20.50;94.70
59311;DHT22;45078;51.654;21.250;2023-07-24T02:31:13;20.40;95.00
59311;DHT22;45078;51.654;21.250;2023-07-24T02:33:39;20.30;95.60
59311;DHT22;45078;51.654;21.250;2023-07-24T02:36:04;20.20;95.80
59311;DHT22;45078;51.654;21.250;2023-07-24T02:38:30;20.10;96.20
59311;DHT22;45078;51.654;21.250;2023-07-24T02:40:56;20.00;97.00
59311;DHT22;45078;51.654;21.250;2023-07-24T02:43:22;19.80;97.70
59311;DHT22;45078;51.654;21.250;2023-07-24T02:45:48;19.70;98.50
59311;DHT22;45078;51.654;21.250;2023-07-24T02:48:13;19.60;99.20
59311;DHT22;45078;51.654;21.250;2023-07-24T02:50:39;19.50;99.90
59311;DHT22;45078;51.654;21.250;2023-07-24T02:53:05;19.40;99.90
59311;DHT22;45078;51.654;21.250;2023-07-24T02:55:31;19.30;99.90
59311;DHT22;45078;51.654;21.250;2023-07-24T02:57:57;19.20;99.90
59311;DHT22;45078;51.654;21.250;2023-07-24T03:00:23;19.10;99.90
59311;DHT22;45078;51.654;21.250;2023-07-24T03:02:48;18.90;99.90
59311;DHT22;45078;51.654;21.250;2023-07-24T03:05:14;18.80;99.90
59311;DHT22;45078;51.654;21.250;2023-07-24T03:07:40;18.60;99.90
59311;DHT22;45078;51.654;21.250;2023-07-24T03:10:06;18.50;99.90
59311;DHT22;45078;51.654;21.250;2023-07-24T03:12:33;18.40;99.90
59311;DHT22;45078;51.654;21.250;2023-07-24T03:14:59;18.30;99.90
59311;DHT22;45078;51.654;21.250;2023-07-24T03:17:24;18.10;99.90
59311;DHT22;45078;51.654;21.250;2023-07-24T03:19:50;18.00;99.90
59311;DHT22;45078;51.654;21.250;2023-07-24T03:22:16;18.00;99.90
59311;DHT22;45078;51.654;21.250;2023-07-24T03:24:42;17.80;99.90
59311;DHT22;45078;51.654;21.250;2023-07-24T03:27:07;17.80;99.90
59311;DHT22;45078;51.654;21.250;2023-07-24T03:29:33;17.80;99.90
59311;DHT22;45078;51.654;21.250;2023-07-24T03:31:59;17.70;99.90
59311;DHT22;45078;51.654;21.250;2023-07-24T03:34:25;17.70;99.90
59311;DHT22;45078;51.654;21.250;2023-07-24T03:36:50;17.70;99.90
59311;DHT22;45078;51.654;21.250;2023-07-24T03:39:16;17.70;99.90
59311;DHT22;45078;51.654;21.250;2023-07-24T03:41:42;17.70;99.90
59311;DHT22;45078;51.654;21.250;2023-07-24T03:44:08;17.70;99.90
59311;DHT22;45078;51.654;21.250;2023-07-24T03:46:34;17.80;99.90
59311;DHT22;45078;51.654;21.250;2023-07-24T03:49:00;17.80;99.90
59311;DHT22;45078;51.654;21.250;2023-07-24T03:51:26;17.90;99.90
59311;DHT22;45078;51.654;21.250;2023-07-24T03:53:52;17.90;99.90
59311;DHT22;45078;51.654;21.250;2023-07-24T03:56:17;18.00;99.90
59311;DHT22;45078;51.654;21.250;2023-07-24T03:58:43;18.00;99.90
59311;DHT22;45078;51.654;21.250;2023-07-24T04:01:09;18.10;99.90
59311;DHT22;45078;51.654;21.250;2023-07-24T04:03:35;18.30;99.90
59311;DHT22;45078;51.654;21.250;2023-07-24T04:06:01;18.40;99.90
59311;DHT22;45078;51.654;21.250;2023-07-24T04:08:27;18.50;99.90
59311;DHT22;45078;51.654;21.250;2023-07-24T04:10:53;18.60;99.90
59311;DHT22;45078;51.654;21.250;2023-07-24T04:13:18;18.60;99.90
59311;DHT22;45078;51.654;21.250;2023-07-24T04:15:44;18.70;99.90
59311;DHT22;45078;51.654;21.250;2023-07-24T04:18:10;18.80;99.90
59311;DHT22;45078;51.654;21.250;2023-07-24T04:20:37;18.80;99.90
59311;DHT22;45078;51.654;21.250;2023-07-24T04:23:03;18.90;99.90
59311;DHT22;45078;51.654;21.250;2023-07-24T04:25:28;19.00;99.90
59311;DHT22;45078;51.654;21.250;2023-07-24T04:27:54;19.10;99.90
59311;DHT22;45078;51.654;21.250;2023-07-24T04:30:20;19.20;99.90
59311;DHT22;45078;51.654;21.250;2023-07-24T04:32:46;19.20;99.90
59311;DHT22;45078;51.654;21.250;2023-07-24T04:35:12;19.30;99.90
59311;DHT22;45078;51.654;21.250;2023-07-24T04:37:40;19.40;99.90
59311;DHT22;45078;51.654;21.250;2023-07-24T04:40:07;19.50;99.90
59311;DHT22;45078;51.654;21.250;2023-07-24T04:42:32;19.60;99.90
59311;DHT22;45078;51.654;21.250;2023-07-24T04:44:58;19.70;99.90
59311;DHT22;45078;51.654;21.250;2023-07-24T04:47:24;19.80;99.90
59311;DHT22;45078;51.654;21.250;2023-07-24T04:49:50;19.90;99.90
59311;DHT22;45078;51.654;21.250;2023-07-24T04:52:15;20.10;99.90
59311;DHT22;45078;51.654;21.250;2023-07-24T04:54:41;20.20;99.90
59311;DHT22;45078;51.654;21.250;2023-07-24T04:57:06;20.40;99.90
59311;DHT22;45078;51.654;21.250;2023-07-24T04:59:32;20.50;99.90
59311;DHT22;45078;51.654;21.250;2023-07-24T05:01:58;20.50;99.90
59311;DHT22;45078;51.654;21.250;2023-07-24T05:04:24;20.60;99.90
59311;DHT22;45078;51.654;21.250;2023-07-24T05:06:49;20.70;99.90
59311;DHT22;45078;51.654;21.250;2023-07-24T05:09:15;20.70;99.90
59311;DHT22;45078;51.654;21.250;2023-07-24T05:11:41;20.80;99.90
59311;DHT22;45078;51.654;21.250;2023-07-24T05:14:10;20.80;99.90
59311;DHT22;45078;51.654;21.250;2023-07-24T05:16:36;20.90;99.90
59311;DHT22;45078;51.654;21.250;2023-07-24T05:19:01;20.90;99.90
59311;DHT22;45078;51.654;21.250;2023-07-24T05:21:27;20.90;99.90
59311;DHT22;45078;51.654;21.250;2023-07-24T05:23:53;21.00;99.90
59311;DHT22;45078;51.654;21.250;2023-07-24T05:26:19;21.00;99.90
59311;DHT22;45078;51.654;21.250;2023-07-24T05:28:44;21.10;99.90
59311;DHT22;45078;51.654;21.250;2023-07-24T05:31:11;21.10;99.90
59311;DHT22;45078;51.654;21.250;2023-07-24T05:33:36;21.20;99.90
59311;DHT22;45078;51.654;21.250;2023-07-24T05:36:03;21.30;99.90
59311;DHT22;45078;51.654;21.250;2023-07-24T05:38:30;21.30;99.90
59311;DHT22;45078;51.654;21.250;2023-07-24T05:41:00;21.40;99.90
59311;DHT22;45078;51.654;21.250;2023-07-24T05:43:27;21.50;99.90
59311;DHT22;45078;51.654;21.250;2023-07-24T05:45:54;21.50;99.90
59311;DHT22;45078;51.654;21.250;2023-07-24T05:48:21;21.60;99.90
59311;DHT22;45078;51.654;21.250;2023-07-24T05:50:47;21.60;99.90
59311;DHT22;45078;51.654;21.250;2023-07-24T05:53:13;21.70;99.90
59311;DHT22;45078;51.654;21.250;2023-07-24T05:55:39;21.80;99.90
59311;DHT22;45078;51.654;21.250;2023-07-24T05:58:05;21.80;99.90
59311;DHT22;45078;51.654;21.250;2023-07-24T06:00:31;21.90;99.90
59311;DHT22;45078;51.654;21.250;2023-07-24T06:02:57;21.90;99.90
59311;DHT22;45078;51.654;21.250;2023-07-24T06:05:22;22.00;99.90
59311;DHT22;45078;51.654;21.250;2023-07-24T06:07:48;22.10;99.90
59311;DHT22;45078;51.654;21.250;2023-07-24T06:10:14;22.20;99.90
59311;DHT22;45078;51.654;21.250;2023-07-24T06:12:40;22.30;99.90
59311;DHT22;45078;51.654;21.250;2023-07-24T06:15:06;22.40;99.90
59311;DHT22;45078;51.654;21.250;2023-07-24T06:17:32;22.50;99.90
59311;DHT22;45078;51.654;21.250;2023-07-24T06:19:58;22.50;99.90
59311;DHT22;45078;51.654;21.250;2023-07-24T06:22:24;22.50;99.90
59311;DHT22;45078;51.654;21.250;2023-07-24T06:24:51;22.60;99.90
59311;DHT22;45078;51.654;21.250;2023-07-24T06:27:17;22.70;99.90
59311;DHT22;45078;51.654;21.250;2023-07-24T06:29:42;22.70;99.90
59311;DHT22;45078;51.654;21.250;2023-07-24T06:32:08;22.80;99.90
59311;DHT22;45078;51.654;21.250;2023-07-24T06:34:34;22.80;99.90
59311;DHT22;45078;51.654;21.250;2023-07-24T06:37:00;22.90;99.90
59311;DHT22;45078;51.654;21.250;2023-07-24T06:39:26;22.90;99.90
59311;DHT22;45078;51.654;21.250;2023-07-24T06:41:52;22.90;99.90
59311;DHT22;45078;51.654;21.250;2023-07-24T06:44:18;23.00;99.90
59311;DHT22;45078;51.654;21.250;2023-07-24T06:46:44;23.10;99.90
59311;DHT22;45078;51.654;21.250;2023-07-24T06:49:09;23.00;99.90
59311;DHT22;45078;51.654;21.250;2023-07-24T06:51:36;23.10;99.90
59311;DHT22;45078;51.654;21.250;2023-07-24T06:54:04;23.20;99.90
59311;DHT22;45078;51.654;21.250;2023-07-24T06:56:30;23.10;99.90
59311;DHT22;45078;51.654;21.250;2023-07-24T06:58:56;23.20;99.90
59311;DHT22;45078;51.654;21.250;2023-07-24T07:01:21;23.20;99.90
59311;DHT22;45078;51.654;21.250;2023-07-24T07:03:47;23.30;99.90
59311;DHT22;45078;51.654;21.250;2023-07-24T07:06:13;23.30;99.90
59311;DHT22;45078;51.654;21.250;2023-07-24T07:08:39;23.40;99.90
59311;DHT22;45078;51.654;21.250;2023-07-24T07:11:05;23.40;99.90
59311;DHT22;45078;51.654;21.250;2023-07-24T07:13:30;23.60;99.90
59311;DHT22;45078;51.654;21.250;2023-07-24T07:15:56;23.60;99.90
59311;DHT22;45078;51.654;21.250;2023-07-24T07:18:22;23.70;99.50
59311;DHT22;45078;51.654;21.250;2023-07-24T07:20:49;23.80;99.90
59311;DHT22;45078;51.654;21.250;2023-07-24T07:23:15;23.90;99.90
59311;DHT22;45078;51.654;21.250;2023-07-24T07:25:41;23.90;99.40
59311;DHT22;45078;51.654;21.250;2023-07-24T07:28:09;23.90;99.40
59311;DHT22;45078;51.654;21.250;2023-07-24T07:30:35;24.00;98.60
59311;DHT22;45078;51.654;21.250;2023-07-24T07:33:01;24.10;98.60
59311;DHT22;45078;51.654;21.250;2023-07-24T07:35:26;24.00;97.90
59311;DHT22;45078;51.654;21.250;2023-07-24T07:37:52;24.00;98.40
59311;DHT22;45078;51.654;21.250;2023-07-24T07:40:18;24.10;98.10
59311;DHT22;45078;51.654;21.250;2023-07-24T07:42:44;24.10;97.40
59311;DHT22;45078;51.654;21.250;2023-07-24T07:45:10;24.10;97.60
59311;DHT22;45078;51.654;21.250;2023-07-24T07:47:36;24.20;97.50
59311;DHT22;45078;51.654;21.250;2023-07-24T07:50:03;24.20;97.40
59311;DHT22;45078;51.654;21.250;2023-07-24T07:52:29;24.30;97.70
59311;DHT22;45078;51.654;21.250;2023-07-24T07:54:54;24.40;97.80
59311;DHT22;45078;51.654;21.250;2023-07-24T07:57:20;24.50;97.40
59311;DHT22;45078;51.654;21.250;2023-07-24T07:59:46;24.60;96.30
59311;DHT22;45078;51.654;21.250;2023-07-24T08:02:12;24.80;96.90
59311;DHT22;45078;51.654;21.250;2023-07-24T08:04:37;24.90;97.20
59311;DHT22;45078;51.654;21.250;2023-07-24T08:07:03;24.90;95.70
59311;DHT22;45078;51.654;21.250;2023-07-24T08:09:29;24.90;95.90
59311;DHT22;45078;51.654;21.250;2023-07-24T08:11:55;24.90;96.50
59311;DHT22;45078;51.654;21.250;2023-07-24T08:14:21;24.90;94.70
59311;DHT22;45078;51.654;21.250;2023-07-24T08:16:50;25.00;94.40
59311;DHT22;45078;51.654;21.250;2023-07-24T08:19:16;25.10;95.10
59311;DHT22;45078;51.654;21.250;2023-07-24T08:21:42;25.10;94.80
59311;DHT22;45078;51.654;21.250;2023-07-24T08:24:08;25.30;94.70
59311;DHT22;45078;51.654;21.250;2023-07-24T08:26:33;25.30;93.90
59311;DHT22;45078;51.654;21.250;2023-07-24T08:28:59;25.30;94.30
59311;DHT22;45078;51.654;21.250;2023-07-24T08:31:25;25.40;94.10
59311;DHT22;45078;51.654;21.250;2023-07-24T08:33:51;25.40;93.60
59311;DHT22;45078;51.654;21.250;2023-07-24T08:36:16;25.50;94.10
59311;DHT22;45078;51.654;21.250;2023-07-24T08:38:42;25.60;92.90
59311;DHT22;45078;51.654;21.250;2023-07-24T08:41:13;25.70;92.90
59311;DHT22;45078;51.654;21.250;2023-07-24T08:43:41;25.70;92.00
59311;DHT22;45078;51.654;21.250;2023-07-24T08:46:07;25.70;91.10
59311;DHT22;45078;51.654;21.250;2023-07-24T08:48:38;25.70;90.80
59311;DHT22;45078;51.654;21.250;2023-07-24T08:51:06;25.80;91.40
59311;DHT22;45078;51.654;21.250;2023-07-24T08:53:39;25.70;92.20
59311;DHT22;45078;51.654;21.250;2023-07-24T08:56:07;25.80;90.80
59311;DHT22;45078;51.654;21.250;2023-07-24T08:58:34;25.70;91.20
59311;DHT22;45078;51.654;21.250;2023-07-24T09:01:02;25.80;91.10
59311;DHT22;45078;51.654;21.250;2023-07-24T09:03:28;25.80;90.40
59311;DHT22;45078;51.654;21.250;2023-07-24T09:05:54;25.80;90.50
59311;DHT22;45078;51.654;21.250;2023-07-24T09:08:53;25.80;90.90
59311;DHT22;45078;51.654;21.250;2023-07-24T09:11:19;25.80;90.90
59311;DHT22;45078;51.654;21.250;2023-07-24T09:13:45;25.90;91.30
59311;DHT22;45078;51.654;21.250;2023-07-24T09:16:24;26.00;91.90
59311;DHT22;45078;51.654;21.250;2023-07-24T09:18:51;26.10;91.00
59311;DHT22;45078;51.654;21.250;2023-07-24T09:21:28;26.10;90.40
59311;DHT22;45078;51.654;21.250;2023-07-24T09:23:54;26.10;90.10
59311;DHT22;45078;51.654;21.250;2023-07-24T09:26:20;25.90;89.00
59311;DHT22;45078;51.654;21.250;2023-07-24T09:28:53;25.90;90.30
59311;DHT22;45078;51.654;21.250;2023-07-24T09:31:19;26.00;90.50
59311;DHT22;45078;51.654;21.250;2023-07-24T09:33:45;26.10;90.90
59311;DHT22;45078;51.654;21.250;2023-07-24T09:36:10;26.20;90.00
59311;DHT22;45078;51.654;21.250;2023-07-24T09:38:38;26.30;91.40
59311;DHT22;45078;51.654;21.250;2023-07-24T09:41:04;26.40;90.70
59311;DHT22;45078;51.654;21.250;2023-07-24T09:43:31;26.40;90.30
59311;DHT22;45078;51.654;21.250;2023-07-24T09:45:57;26.50;90.70
59311;DHT22;45078;51.654;21.250;2023-07-24T09:48:25;26.70;90.10
59311;DHT22;45078;51.654;21.250;2023-07-24T09:50:56;26.70;90.10
59311;DHT22;45078;51.654;21.250;2023-07-24T09:53:31;26.80;90.00
59311;DHT22;45078;51.654;21.250;2023-07-24T09:56:08;26.80;89.60
59311;DHT22;45078;51.654;21.250;2023-07-24T09:58:36;26.90;90.30
59311;DHT22;45078;51.654;21.250;2023-07-24T10:01:03;27.00;89.80
59311;DHT22;45078;51.654;21.250;2023-07-24T10:03:37;27.10;89.60
59311;DHT22;45078;51.654;21.250;2023-07-24T10:06:03;27.10;85.70
59311;DHT22;45078;51.654;21.250;2023-07-24T10:08:30;27.10;87.00
59311;DHT22;45078;51.654;21.250;2023-07-24T10:10:58;27.10;86.60
59311;DHT22;45078;51.654;21.250;2023-07-24T10:13:26;27.10;86.50
59311;DHT22;45078;51.654;21.250;2023-07-24T10:15:52;27.00;84.40
59311;DHT22;45078;51.654;21.250;2023-07-24T10:18:28;26.80;83.00
59311;DHT22;45078;51.654;21.250;2023-07-24T10:21:06;27.00;84.50
59311;DHT22;45078;51.654;21.250;2023-07-24T10:23:45;27.00;84.80
59311;DHT22;45078;51.654;21.250;2023-07-24T10:26:14;27.00;84.60
59311;DHT22;45078;51.654;21.250;2023-07-24T10:28:41;27.10;83.70
59311;DHT22;45078;51.654;21.250;2023-07-24T10:31:29;27.10;85.20
59311;DHT22;45078;51.654;21.250;2023-07-24T10:33:55;27.00;83.10
59311;DHT22;45078;51.654;21.250;2023-07-24T10:36:23;26.90;85.00
59311;DHT22;45078;51.654;21.250;2023-07-24T10:38:54;26.90;83.50
59311;DHT22;45078;51.654;21.250;2023-07-24T10:41:20;27.00;84.20
59311;DHT22;45078;51.654;21.250;2023-07-24T10:43:48;27.10;83.60
59311;DHT22;45078;51.654;21.250;2023-07-24T10:46:15;27.10;85.60
59311;DHT22;45078;51.654;21.250;2023-07-24T10:48:52;27.30;85.40
59311;DHT22;45078;51.654;21.250;2023-07-24T10:51:17;27.40;83.10
59311;DHT22;45078;51.654;21.250;2023-07-24T10:53:48;27.50;81.90
59311;DHT22;45078;51.654;21.250;2023-07-24T10:56:15;27.50;82.10
59311;DHT22;45078;51.654;21.250;2023-07-24T10:58:41;27.40;80.80
59311;DHT22;45078;51.654;21.250;2023-07-24T11:01:08;27.40;81.20
59311;DHT22;45078;51.654;21.250;2023-07-24T11:03:39;27.40;79.30
59311;DHT22;45078;51.654;21.250;2023-07-24T11:06:16;27.50;78.20
59311;DHT22;45078;51.654;21.250;2023-07-24T11:08:42;27.50;77.90
59311;DHT22;45078;51.654;21.250;2023-07-24T11:11:08;27.80;77.50
59311;DHT22;45078;51.654;21.250;2023-07-24T11:13:34;28.00;77.30
59311;DHT22;45078;51.654;21.250;2023-07-24T11:16:07;28.20;78.80
59311;DHT22;45078;51.654;21.250;2023-07-24T11:18:46;28.40;77.00
59311;DHT22;45078;51.654;21.250;2023-07-24T11:21:13;28.50;75.40
59311;DHT22;45078;51.654;21.250;2023-07-24T11:23:50;28.60;75.40
59311;DHT22;45078;51.654;21.250;2023-07-24T11:26:19;28.80;75.70
59311;DHT22;45078;51.654;21.250;2023-07-24T11:28:46;28.90;75.70
59311;DHT22;45078;51.654;21.250;2023-07-24T11:31:12;29.00;74.40
59311;DHT22;45078;51.654;21.250;2023-07-24T11:33:38;29.00;74.90
59311;DHT22;45078;51.654;21.250;2023-07-24T11:36:04;29.00;74.20
59311;DHT22;45078;51.654;21.250;2023-07-24T11:38:31;29.10;74.90
59311;DHT22;45078;51.654;21.250;2023-07-24T11:40:57;29.20;75.80
59311;DHT22;45078;51.654;21.250;2023-07-24T11:43:24;29.20;74.30
59311;DHT22;45078;51.654;21.250;2023-07-24T11:45:52;29.40;74.90
59311;DHT22;45078;51.654;21.250;2023-07-24T11:48:23;29.40;74.50
59311;DHT22;45078;51.654;21.250;2023-07-24T11:50:51;29.40;73.80
59311;DHT22;45078;51.654;21.250;2023-07-24T11:53:28;29.40;74.00
59311;DHT22;45078;51.654;21.250;2023-07-24T11:55:59;29.30;74.20
59311;DHT22;45078;51.654;21.250;2023-07-24T11:58:27;29.10;73.60
59311;DHT22;45078;51.654;21.250;2023-07-24T12:00:53;29.20;74.30
59311;DHT22;45078;51.654;21.250;2023-07-24T12:03:25;29.00;72.80
59311;DHT22;45078;51.654;21.250;2023-07-24T12:05:51;29.00;75.40
59311;DHT22;45078;51.654;21.250;2023-07-24T12:08:29;29.10;75.10
59311;DHT22;45078;51.654;21.250;2023-07-24T12:10:55;29.40;75.60
59311;DHT22;45078;51.654;21.250;2023-07-24T12:13:21;29.60;72.50
59311;DHT22;45078;51.654;21.250;2023-07-24T12:15:47;29.80;71.90
59311;DHT22;45078;51.654;21.250;2023-07-24T12:18:13;29.90;72.30
59311;DHT22;45078;51.654;21.250;2023-07-24T12:20:38;30.00;71.30
59311;DHT22;45078;51.654;21.250;2023-07-24T12:23:05;30.10;69.70
59311;DHT22;45078;51.654;21.250;2023-07-24T12:25:31;30.10;70.80
59311;DHT22;45078;51.654;21.250;2023-07-24T12:27:56;30.20;71.10
59311;DHT22;45078;51.654;21.250;2023-07-24T12:30:22;30.30;70.20
59311;DHT22;45078;51.654;21.250;2023-07-24T12:32:48;30.20;70.30
59311;DHT22;45078;51.654;21.250;2023-07-24T12:35:15;30.00;72.10
59311;DHT22;45078;51.654;21.250;2023-07-24T12:37:42;30.10;71.60
59311;DHT22;45078;51.654;21.250;2023-07-24T12:40:08;30.00;72.30
59311;DHT22;45078;51.654;21.250;2023-07-24T12:42:34;30.00;72.40
59311;DHT22;45078;51.654;21.250;2023-07-24T12:45:00;29.90;72.30
59311;DHT22;45078;51.654;21.250;2023-07-24T12:47:28;29.90;72.20
59311;DHT22;45078;51.654;21.250;2023-07-24T12:49:54;30.00;72.30
59311;DHT22;45078;51.654;21.250;2023-07-24T12:52:21;30.00;72.80
59311;DHT22;45078;51.654;21.250;2023-07-24T12:54:47;30.00;72.40
59311;DHT22;45078;51.654;21.250;2023-07-24T12:57:13;29.90;73.30
59311;DHT22;45078;51.654;21.250;2023-07-24T12:59:39;29.70;72.20
59311;DHT22;45078;51.654;21.250;2023-07-24T13:02:04;29.70;72.80
59311;DHT22;45078;51.654;21.250;2023-07-24T13:04:31;29.70;72.70
59311;DHT22;45078;51.654;21.250;2023-07-24T13:06:57;29.60;73.70
59311;DHT22;45078;51.654;21.250;2023-07-24T13:09:24;29.60;72.50
59311;DHT22;45078;51.654;21.250;2023-07-24T13:11:51;29.60;73.20
59311;DHT22;45078;51.654;21.250;2023-07-24T13:14:17;29.80;73.70
59311;DHT22;45078;51.654;21.250;2023-07-24T13:16:43;29.80;72.80
59311;DHT22;45078;51.654;21.250;2023-07-24T13:19:09;29.70;72.10
59311;DHT22;45078;51.654;21.250;2023-07-24T13:21:35;29.70;72.50
59311;DHT22;45078;51.654;21.250;2023-07-24T13:24:00;29.80;71.70
59311;DHT22;45078;51.654;21.250;2023-07-24T13:26:26;29.70;71.10
59311;DHT22;45078;51.654;21.250;2023-07-24T13:28:52;29.60;71.40
59311;DHT22;45078;51.654;21.250;2023-07-24T13:31:19;29.50;68.80
59311;DHT22;45078;51.654;21.250;2023-07-24T13:33:46;29.50;69.70
59311;DHT22;45078;51.654;21.250;2023-07-24T13:36:12;29.30;68.60
59311;DHT22;45078;51.654;21.250;2023-07-24T13:38:38;29.30;70.10
59311;DHT22;45078;51.654;21.250;2023-07-24T13:41:04;29.50;68.60
59311;DHT22;45078;51.654;21.250;2023-07-24T13:43:31;29.80;68.80
59311;DHT22;45078;51.654;21.250;2023-07-24T13:45:57;30.00;67.30
59311;DHT22;45078;51.654;21.250;2023-07-24T13:48:26;30.10;66.40
59311;DHT22;45078;51.654;21.250;2023-07-24T13:50:52;30.10;67.50
59311;DHT22;45078;51.654;21.250;2023-07-24T13:53:18;30.20;66.80
59311;DHT22;45078;51.654;21.250;2023-07-24T13:55:44;30.40;67.30
59311;DHT22;45078;51.654;21.250;2023-07-24T13:58:10;30.40;65.10
59311;DHT22;45078;51.654;21.250;2023-07-24T14:00:36;30.50;65.30
59311;DHT22;45078;51.654;21.250;2023-07-24T14:03:02;30.70;67.10
59311;DHT22;45078;51.654;21.250;2023-07-24T14:05:28;30.70;65.30
59311;DHT22;45078;51.654;21.250;2023-07-24T14:07:54;30.80;64.50
59311;DHT22;45078;51.654;21.250;2023-07-24T14:10:20;30.60;64.10
59311;DHT22;45078;51.654;21.250;2023-07-24T14:12:45;30.60;64.80
59311;DHT22;45078;51.654;21.250;2023-07-24T14:15:12;30.60;64.00
59311;DHT22;45078;51.654;21.250;2023-07-24T14:17:38;30.80;64.90
59311;DHT22;45078;51.654;21.250;2023-07-24T14:20:04;30.80;65.00
59311;DHT22;45078;51.654;21.250;2023-07-24T14:22:30;30.80;63.60
59311;DHT22;45078;51.654;21.250;2023-07-24T14:24:56;31.00;63.40
59311;DHT22;45078;51.654;21.250;2023-07-24T14:27:22;31.00;64.40
59311;DHT22;45078;51.654;21.250;2023-07-24T14:29:48;30.90;62.50
59311;DHT22;45078;51.654;21.250;2023-07-24T14:32:13;30.60;63.90
59311;DHT22;45078;51.654;21.250;2023-07-24T14:34:41;30.60;64.40
59311;DHT22;45078;51.654;21.250;2023-07-24T14:37:06;30.60;64.20
59311;DHT22;45078;51.654;21.250;2023-07-24T14:39:32;30.50;64.60
59311;DHT22;45078;51.654;21.250;2023-07-24T14:41:58;30.50;65.10
59311;DHT22;45078;51.654;21.250;2023-07-24T14:44:24;30.50;65.60
59311;DHT22;45078;51.654;21.250;2023-07-24T14:46:50;30.30;66.40
59311;DHT22;45078;51.654;21.250;2023-07-24T14:49:16;30.20;67.00
59311;DHT22;45078;51.654;21.250;2023-07-24T14:51:42;30.00;67.00
59311;DHT22;45078;51.654;21.250;2023-07-24T14:54:08;29.90;66.90
59311;DHT22;45078;51.654;21.250;2023-07-24T14:56:33;30.00;68.00
59311;DHT22;45078;51.654;21.250;2023-07-24T14:58:59;30.10;67.60
59311;DHT22;45078;51.654;21.250;2023-07-24T15:01:26;30.30;67.20
59311;DHT22;45078;51.654;21.250;2023-07-24T15:03:53;30.40;68.00
59311;DHT22;45078;51.654;21.250;2023-07-24T15:06:19;30.50;65.80
59311;DHT22;45078;51.654;21.250;2023-07-24T15:08:45;30.60;65.90
59311;DHT22;45078;51.654;21.250;2023-07-24T15:11:10;30.70;64.90
59311;DHT22;45078;51.654;21.250;2023-07-24T15:13:38;30.60;65.30
59311;DHT22;45078;51.654;21.250;2023-07-24T15:16:04;30.60;67.40